Time;durP1;ratioP1;P1;durP2;ratioP2;P2;SDS_P1;SDS_P2;PMS_P1;PMS_P2;Temp;Humidity;BMP_temperature;BMP_pressure;BME280_temperature;BME280_humidity;BME280_pressure;Samples;Min_cycle;Max_cycle;Signal;HPM_P1;HPM_P2
2022/08/18 00:00:46;;;;;;;5.30;4.80;;;;;;;;;;5026524;28;20231;-89
2022/08/18 00:03:13;;;;;;;6.05;4.47;;;;;;;;;;5028331;28;20213;-88
2022/08/18 00:05:40;;;;;;;8.63;6.15;;;;;;;;;;5037877;28;20263;-88
2022/08/18 00:08:08;;;;;;;4.90;4.35;;;;;;;;;;5031756;28;20238;-88
2022/08/18 00:10:36;;;;;;;11.65;5.63;;;;;;;;;;5091257;22;20240;-86
2022/08/18 00:13:03;;;;;;;7.03;4.10;;;;;;;;;;5053965;28;20216;-85
2022/08/18 00:15:30;;;;;;;5.35;4.20;;;;;;;;;;5072100;28;20233;-85
2022/08/18 00:17:57;;;;;;;6.05;4.72;;;;;;;;;;5072004;28;20216;-85
2022/08/18 00:20:25;;;;;;;5.32;3.97;;;;;;;;;;5052050;28;20241;-86
2022/08/18 00:22:52;;;;;;;5.70;4.07;;;;;;;;;;5052108;28;20238;-85
2022/08/18 00:25:20;;;;;;;5.65;4.15;;;;;;;;;;5052198;28;20260;-85
2022/08/18 00:27:48;;;;;;;4.60;4.18;;;;;;;;;;5052450;28;20202;-85
2022/08/18 00:30:17;;;;;;;4.30;3.70;;;;;;;;;;5056354;28;20261;-84
2022/08/18 00:32:47;;;;;;;5.35;3.97;;;;;;;;;;5056462;28;20198;-85
2022/08/18 00:35:17;;;;;;;4.30;3.63;;;;;;;;;;5056196;28;20230;-85
2022/08/18 00:37:44;;;;;;;4.30;3.90;;;;;;;;;;5056181;28;20221;-85
2022/08/18 00:40:12;;;;;;;4.28;3.72;;;;;;;;;;5067993;28;20316;-85
2022/08/18 00:42:43;;;;;;;4.43;3.95;;;;;;;;;;5076386;28;20216;-85
2022/08/18 00:45:13;;;;;;;4.70;4.28;;;;;;;;;;5063952;28;20648;-85
2022/08/18 00:47:41;;;;;;;4.90;4.20;;;;;;;;;;5056396;28;20791;-85
2022/08/18 00:50:08;;;;;;;6.68;4.22;;;;;;;;;;5055915;28;20339;-85
2022/08/18 00:52:35;;;;;;;5.20;3.85;;;;;;;;;;5055775;28;20206;-85
2022/08/18 00:55:03;;;;;;;5.10;3.80;;;;;;;;;;5055317;28;20241;-85
2022/08/18 00:57:31;;;;;;;4.30;3.90;;;;;;;;;;5066198;28;20692;-85
2022/08/18 01:00:06;;;;;;;4.20;3.90;;;;;;;;;;5074997;28;20221;-85
2022/08/18 01:02:39;;;;;;;7.28;4.72;;;;;;;;;;5073282;28;20216;-86
2022/08/18 01:05:09;;;;;;;5.95;4.50;;;;;;;;;;5069985;28;20233;-85
2022/08/18 01:07:38;;;;;;;5.82;3.63;;;;;;;;;;5069198;28;20213;-85
2022/08/18 01:10:06;;;;;;;4.57;4.20;;;;;;;;;;5061251;28;20296;-85
2022/08/18 01:12:33;;;;;;;4.57;4.18;;;;;;;;;;5055402;28;20300;-85
2022/08/18 01:15:01;;;;;;;8.07;4.68;;;;;;;;;;5054951;28;20237;-85
2022/08/18 01:23:10;;;;;;;4.50;4.10;;;;;;;;;;5055038;28;20301;-85
2022/08/18 01:28:23;;;;;;;12.48;4.70;;;;;;;;;;5070419;28;20199;-86
2022/08/18 01:30:52;;;;;;;7.35;4.40;;;;;;;;;;5074631;28;20229;-85
2022/08/18 01:33:19;;;;;;;4.88;4.38;;;;;;;;;;5075292;28;20211;-85
2022/08/18 01:35:48;;;;;;;7.00;4.45;;;;;;;;;;5074904;28;20303;-85
2022/08/18 01:38:17;;;;;;;7.68;4.90;;;;;;;;;;5074766;28;20208;-85
2022/08/18 01:40:44;;;;;;;6.28;4.45;;;;;;;;;;5074107;28;20241;-85
2022/08/18 01:43:12;;;;;;;5.28;4.78;;;;;;;;;;5072017;28;20201;-85
2022/08/18 01:45:39;;;;;;;5.90;4.55;;;;;;;;;;5054573;28;20238;-85
2022/08/18 01:48:06;;;;;;;6.95;4.88;;;;;;;;;;5055198;28;20209;-85
2022/08/18 01:50:34;;;;;;;4.70;4.30;;;;;;;;;;5055531;28;20646;-85
2022/08/18 01:53:01;;;;;;;7.45;4.85;;;;;;;;;;5074272;28;20201;-86
2022/08/18 01:55:29;;;;;;;5.00;4.60;;;;;;;;;;5074556;28;20241;-85
2022/08/18 01:57:56;;;;;;;4.97;4.57;;;;;;;;;;5074871;28;20701;-85
2022/08/18 02:00:25;;;;;;;6.47;4.65;;;;;;;;;;5074369;28;20241;-85
2022/08/18 02:02:52;;;;;;;5.30;4.80;;;;;;;;;;5057414;28;20213;-85
2022/08/18 02:05:22;;;;;;;5.38;4.55;;;;;;;;;;5054311;28;20237;-85
2022/08/18 02:07:50;;;;;;;4.95;4.47;;;;;;;;;;5054725;28;20190;-85
2022/08/18 02:10:18;;;;;;;4.72;4.30;;;;;;;;;;5053883;28;20252;-85
2022/08/18 02:12:46;;;;;;;6.05;4.90;;;;;;;;;;5054410;28;20658;-85
2022/08/18 02:15:14;;;;;;;10.93;5.18;;;;;;;;;;5054162;28;20245;-85
2022/08/18 02:17:42;;;;;;;5.72;5.10;;;;;;;;;;5054698;28;20232;-85
2022/08/18 02:20:10;;;;;;;8.35;5.38;;;;;;;;;;5065647;28;20716;-85
2022/08/18 02:22:37;;;;;;;4.93;4.50;;;;;;;;;;5062690;28;20670;-86
2022/08/18 02:25:05;;;;;;;6.45;5.00;;;;;;;;;;5053865;28;20632;-85
2022/08/18 02:27:32;;;;;;;4.93;4.47;;;;;;;;;;5063028;28;20206;-85
2022/08/18 02:30:01;;;;;;;7.78;4.97;;;;;;;;;;5073950;28;20237;-85
2022/08/18 02:32:29;;;;;;;6.53;5.50;;;;;;;;;;5074183;28;20255;-85
2022/08/18 02:34:56;;;;;;;6.32;4.82;;;;;;;;;;5073496;28;20200;-85
2022/08/18 02:37:23;;;;;;;6.53;5.85;;;;;;;;;;5074149;28;20220;-85
2022/08/18 02:39:50;;;;;;;5.82;4.80;;;;;;;;;;5074505;28;20226;-86
2022/08/18 02:42:17;;;;;;;6.00;4.70;;;;;;;;;;5074514;28;20209;-85
2022/08/18 02:44:44;;;;;;;5.40;4.88;;;;;;;;;;5073639;28;20228;-85
2022/08/18 02:47:13;;;;;;;8.55;5.60;;;;;;;;;;5072206;28;20208;-85
2022/08/18 02:49:40;;;;;;;5.65;5.15;;;;;;;;;;5066289;28;20603;-85
2022/08/18 02:52:07;;;;;;;5.60;5.10;;;;;;;;;;5072713;28;20216;-85
2022/08/18 02:54:34;;;;;;;6.88;5.07;;;;;;;;;;5055701;28;20202;-85
2022/08/18 02:57:06;;;;;;;5.93;5.13;;;;;;;;;;5053883;28;20234;-85
2022/08/18 02:59:34;;;;;;;5.00;4.60;;;;;;;;;;5053936;28;20229;-85
2022/08/18 03:02:01;;;;;;;6.30;5.22;;;;;;;;;;5063938;28;20233;-85
2022/08/18 03:04:30;;;;;;;5.90;5.20;;;;;;;;;;5054046;28;20209;-85
2022/08/18 03:06:57;;;;;;;7.68;5.07;;;;;;;;;;5052904;28;20229;-85
2022/08/18 03:09:25;;;;;;;7.40;5.70;;;;;;;;;;5053424;28;20612;-85
2022/08/18 03:11:53;;;;;;;9.80;5.25;;;;;;;;;;5052718;28;20237;-85
2022/08/18 03:14:20;;;;;;;5.30;4.80;;;;;;;;;;5053517;28;20229;-85
2022/08/18 03:16:48;;;;;;;7.93;5.40;;;;;;;;;;5052774;28;20233;-85
2022/08/18 03:19:15;;;;;;;6.22;5.18;;;;;;;;;;5053546;28;20221;-85
2022/08/18 03:21:44;;;;;;;6.18;5.03;;;;;;;;;;5065689;28;20259;-85
2022/08/18 03:24:12;;;;;;;5.40;4.90;;;;;;;;;;5063861;28;20208;-85
2022/08/18 03:26:41;;;;;;;5.70;5.20;;;;;;;;;;5066951;28;20705;-86
2022/08/18 03:29:08;;;;;;;5.95;5.15;;;;;;;;;;5053307;28;20253;-86
2022/08/18 03:31:37;;;;;;;5.65;5.15;;;;;;;;;;5067135;28;20229;-86
2022/08/18 03:34:05;;;;;;;5.32;4.82;;;;;;;;;;5073212;28;20209;-86
2022/08/18 03:36:34;;;;;;;5.05;4.65;;;;;;;;;;5071244;28;20220;-86
2022/08/18 03:39:04;;;;;;;5.45;4.88;;;;;;;;;;5072690;28;20222;-86
2022/08/18 03:41:31;;;;;;;6.55;5.05;;;;;;;;;;5061749;28;20237;-86
2022/08/18 03:43:59;;;;;;;5.65;4.80;;;;;;;;;;5053109;28;20213;-86
2022/08/18 03:46:26;;;;;;;5.63;5.13;;;;;;;;;;5070303;28;20260;-87
2022/08/18 03:48:53;;;;;;;6.03;4.70;;;;;;;;;;5072603;28;20255;-86
2022/08/18 03:51:23;;;;;;;5.82;5.30;;;;;;;;;;5071629;28;20236;-86
2022/08/18 03:53:51;;;;;;;7.10;5.68;;;;;;;;;;5072806;28;20200;-86
2022/08/18 03:56:22;;;;;;;5.32;4.88;;;;;;;;;;5072046;28;20627;-86
2022/08/18 03:58:50;;;;;;;6.07;5.47;;;;;;;;;;5072616;28;20233;-86
2022/08/18 04:01:18;;;;;;;7.15;5.25;;;;;;;;;;5071885;28;20740;-86
2022/08/18 04:03:46;;;;;;;6.82;5.65;;;;;;;;;;5072119;28;20205;-87
2022/08/18 04:06:15;;;;;;;6.18;5.57;;;;;;;;;;5072054;28;20597;-86
2022/08/18 04:08:43;;;;;;;5.20;4.80;;;;;;;;;;5075562;28;20220;-83
2022/08/18 04:11:10;;;;;;;7.95;5.78;;;;;;;;;;5092511;28;20236;-83
2022/08/18 04:13:38;;;;;;;5.38;4.88;;;;;;;;;;5086735;28;20204;-84
2022/08/18 04:16:05;;;;;;;8.00;5.03;;;;;;;;;;5073094;28;20225;-84
2022/08/18 04:18:32;;;;;;;8.88;4.93;;;;;;;;;;5071426;28;20247;-84
2022/08/18 04:21:02;;;;;;;5.57;4.88;;;;;;;;;;5071423;28;20233;-84
2022/08/18 04:23:29;;;;;;;6.25;5.18;;;;;;;;;;5072642;28;20257;-84
2022/08/18 04:25:57;;;;;;;6.95;4.93;;;;;;;;;;5071838;28;20244;-84
2022/08/18 04:28:24;;;;;;;5.70;5.10;;;;;;;;;;5072347;28;20198;-84
2022/08/18 04:30:53;;;;;;;6.55;5.53;;;;;;;;;;5072752;28;20236;-83
2022/08/18 04:36:12;;;;;;;6.80;6.10;;;;;;;;;;5071482;28;20229;-85
2022/08/18 04:38:40;;;;;;;10.30;5.38;;;;;;;;;;5071990;28;20221;-85
2022/08/18 04:41:07;;;;;;;9.07;5.70;;;;;;;;;;5072057;28;20319;-86
2022/08/18 04:43:35;;;;;;;10.65;6.03;;;;;;;;;;5072433;28;20212;-82
2022/08/18 04:46:04;;;;;;;9.27;5.18;;;;;;;;;;5072186;28;20240;-83
2022/08/18 04:48:32;;;;;;;11.75;5.78;;;;;;;;;;5072644;28;20584;-82
2022/08/18 04:51:03;;;;;;;7.15;5.75;;;;;;;;;;5072150;28;20269;-83
2022/08/18 04:53:45;;;;;;;7.05;5.80;;;;;;;;;;5072715;28;20217;-82
2022/08/18 04:56:20;;;;;;;7.90;5.85;;;;;;;;;;5072354;28;20589;-82
2022/08/18 04:58:51;;;;;;;7.32;5.55;;;;;;;;;;5072482;28;20225;-82
2022/08/18 05:01:20;;;;;;;6.78;5.60;;;;;;;;;;5072027;28;20244;-83
2022/08/18 05:03:48;;;;;;;7.35;6.03;;;;;;;;;;5072590;28;20209;-82
2022/08/18 05:06:15;;;;;;;8.95;6.18;;;;;;;;;;5072545;28;20240;-82
2022/08/18 05:08:42;;;;;;;7.05;5.22;;;;;;;;;;5072678;28;20206;-83
2022/08/18 05:11:10;;;;;;;7.70;6.35;;;;;;;;;;5071505;28;20230;-83
2022/08/18 05:13:37;;;;;;;6.28;5.68;;;;;;;;;;5073251;28;20206;-83
2022/08/18 05:16:05;;;;;;;6.45;5.82;;;;;;;;;;5075237;28;20240;-82
2022/08/18 05:18:37;;;;;;;9.27;6.47;;;;;;;;;;5076254;28;20799;-88
2022/08/18 05:21:04;;;;;;;9.32;5.90;;;;;;;;;;5075513;28;20233;-83
2022/08/18 05:23:32;;;;;;;9.90;6.55;;;;;;;;;;5077204;28;20209;-82
2022/08/18 05:25:59;;;;;;;8.45;6.20;;;;;;;;;;5075950;28;20244;-83
2022/08/18 05:28:26;;;;;;;7.55;6.07;;;;;;;;;;5076354;28;20549;-82
2022/08/18 05:30:54;;;;;;;6.72;5.90;;;;;;;;;;5074943;28;20719;-83
2022/08/18 05:33:21;;;;;;;10.07;7.35;;;;;;;;;;5076181;28;20232;-82
2022/08/18 05:36:02;;;;;;;10.55;6.75;;;;;;;;;;5072777;28;20336;-83
2022/08/18 05:38:35;;;;;;;9.25;6.38;;;;;;;;;;5077826;28;20229;-82
2022/08/18 05:41:06;;;;;;;11.07;6.57;;;;;;;;;;5075811;28;20320;-82
2022/08/18 05:43:40;;;;;;;8.45;6.22;;;;;;;;;;5080052;28;20658;-83
2022/08/18 05:46:08;;;;;;;8.02;6.35;;;;;;;;;;5075304;28;20237;-83
2022/08/18 05:48:35;;;;;;;7.47;6.65;;;;;;;;;;5076938;28;20202;-82
2022/08/18 05:51:10;;;;;;;11.05;6.68;;;;;;;;;;5075380;28;20781;-83
2022/08/18 05:59:10;;;;;;;8.48;6.78;;;;;;;;;;5071688;28;20282;-84
2022/08/18 06:01:40;;;;;;;9.85;6.70;;;;;;;;;;5074183;28;20233;-83
2022/08/18 06:04:08;;;;;;;8.88;6.75;;;;;;;;;;5073878;28;20679;-82
2022/08/18 06:06:37;;;;;;;8.38;6.18;;;;;;;;;;5074035;28;20236;-82
2022/08/18 06:09:06;;;;;;;7.43;6.72;;;;;;;;;;5069282;28;20229;-83
2022/08/18 06:11:33;;;;;;;11.88;7.13;;;;;;;;;;5080776;28;20240;-83
2022/08/18 06:14:00;;;;;;;7.65;6.60;;;;;;;;;;5093659;28;20212;-83
2022/08/18 06:16:36;;;;;;;8.27;6.43;;;;;;;;;;5093260;28;20240;-83
2022/08/18 06:19:06;;;;;;;8.95;6.75;;;;;;;;;;5081797;28;20224;-84
2022/08/18 06:21:39;;;;;;;9.38;6.65;;;;;;;;;;5093192;28;20236;-83
2022/08/18 06:24:11;;;;;;;8.02;6.60;;;;;;;;;;5087038;28;20692;-82
2022/08/18 06:26:42;;;;;;;8.05;6.80;;;;;;;;;;5093107;28;20267;-83
2022/08/18 06:29:15;;;;;;;7.68;6.88;;;;;;;;;;5093478;28;20225;-84
2022/08/18 06:31:44;;;;;;;7.18;6.47;;;;;;;;;;5089370;28;20233;-83
2022/08/18 06:34:16;;;;;;;7.25;6.25;;;;;;;;;;5073104;28;20233;-83
2022/08/18 06:36:48;;;;;;;6.90;6.30;;;;;;;;;;5072788;28;20240;-82
2022/08/18 06:39:19;;;;;;;8.07;6.65;;;;;;;;;;5073047;28;20229;-83
2022/08/18 06:41:47;;;;;;;8.00;6.65;;;;;;;;;;5072208;28;20237;-83
2022/08/18 06:44:20;;;;;;;8.68;6.40;;;;;;;;;;5072768;28;20679;-83
2022/08/18 06:46:49;;;;;;;7.25;6.38;;;;;;;;;;5072521;28;20229;-83
2022/08/18 06:49:20;;;;;;;7.72;7.03;;;;;;;;;;5073276;28;20268;-83
2022/08/18 06:51:49;;;;;;;8.60;7.20;;;;;;;;;;5072091;28;20234;-83
2022/08/18 06:54:27;;;;;;;7.20;6.60;;;;;;;;;;5072925;28;20601;-82
2022/08/18 06:56:56;;;;;;;8.82;7.18;;;;;;;;;;5072408;28;20257;-83
2022/08/18 06:59:24;;;;;;;7.50;6.80;;;;;;;;;;5072706;28;20233;-84
2022/08/18 07:01:53;;;;;;;10.45;7.13;;;;;;;;;;5072447;28;20237;-83
2022/08/18 07:04:36;;;;;;;10.35;7.15;;;;;;;;;;5075016;28;20295;-83
2022/08/18 07:07:14;;;;;;;10.27;6.85;;;;;;;;;;5063181;28;20278;-83
2022/08/18 07:09:41;;;;;;;8.13;6.85;;;;;;;;;;5093817;28;20724;-83
2022/08/18 07:12:10;;;;;;;8.82;7.43;;;;;;;;;;5094855;28;20644;-82
2022/08/18 07:14:44;;;;;;;9.30;8.40;;;;;;;;;;5075897;28;20205;-83
2022/08/18 07:17:12;;;;;;;10.65;7.50;;;;;;;;;;5081268;28;20583;-83
2022/08/18 07:19:40;;;;;;;10.15;7.47;;;;;;;;;;5093551;28;20292;-83
2022/08/18 07:22:08;;;;;;;8.18;7.07;;;;;;;;;;5092833;28;20193;-83
2022/08/18 07:24:39;;;;;;;8.52;7.10;;;;;;;;;;5093309;28;20209;-83
2022/08/18 07:27:07;;;;;;;9.40;7.35;;;;;;;;;;5092911;28;20236;-83
2022/08/18 07:29:36;;;;;;;9.85;7.85;;;;;;;;;;5097583;28;20240;-82
2022/08/18 07:32:06;;;;;;;8.88;7.43;;;;;;;;;;5094771;28;20249;-84
2022/08/18 07:34:36;;;;;;;7.72;6.93;;;;;;;;;;5092400;28;20215;-83
2022/08/18 07:37:06;;;;;;;8.32;7.05;;;;;;;;;;5093334;28;20239;-84
2022/08/18 07:39:37;;;;;;;8.55;7.65;;;;;;;;;;5092977;28;20600;-83
2022/08/18 07:42:08;;;;;;;9.15;7.47;;;;;;;;;;5093439;28;20234;-84
2022/08/18 07:44:40;;;;;;;8.70;7.22;;;;;;;;;;5092101;28;20250;-84
2022/08/18 07:47:12;;;;;;;8.57;7.70;;;;;;;;;;5053410;28;20230;-84
2022/08/18 07:49:40;;;;;;;8.88;6.80;;;;;;;;;;5052133;28;20222;-84
2022/08/18 07:52:08;;;;;;;7.00;6.35;;;;;;;;;;5053571;28;20210;-84
2022/08/18 07:54:44;;;;;;;8.05;6.82;;;;;;;;;;5059434;28;20311;-83
2022/08/18 07:57:16;;;;;;;11.13;7.32;;;;;;;;;;5072498;28;20213;-84
2022/08/18 07:59:46;;;;;;;9.55;7.57;;;;;;;;;;5072347;28;20240;-85
2022/08/18 08:02:24;;;;;;;9.18;7.55;;;;;;;;;;5073387;28;20255;-85
2022/08/18 08:04:57;;;;;;;8.85;7.07;;;;;;;;;;5072718;28;20192;-85
2022/08/18 08:07:29;;;;;;;11.13;7.47;;;;;;;;;;5072674;28;20205;-85
2022/08/18 08:10:02;;;;;;;7.55;6.82;;;;;;;;;;5072011;28;20229;-85
2022/08/18 08:12:37;;;;;;;8.38;7.50;;;;;;;;;;5075896;28;20196;-84
2022/08/18 08:15:10;;;;;;;8.38;6.80;;;;;;;;;;5072855;28;20259;-85
2022/08/18 08:17:40;;;;;;;8.75;7.10;;;;;;;;;;5072162;28;20205;-84
2022/08/18 08:20:14;;;;;;;9.95;6.90;;;;;;;;;;5076250;28;20245;-84
2022/08/18 08:22:50;;;;;;;7.72;6.93;;;;;;;;;;5075681;28;20204;-84
2022/08/18 08:25:19;;;;;;;9.77;7.25;;;;;;;;;;5084390;28;20239;-84
2022/08/18 08:27:55;;;;;;;8.70;7.57;;;;;;;;;;5082590;28;20198;-84
2022/08/18 08:30:27;;;;;;;9.00;8.02;;;;;;;;;;5076779;28;20241;-84
2022/08/18 08:33:03;;;;;;;10.70;9.10;;;;;;;;;;5078606;28;20260;-83
2022/08/18 08:35:34;;;;;;;14.30;9.68;;;;;;;;;;5077674;28;20240;-84
2022/08/18 08:38:03;;;;;;;14.20;9.40;;;;;;;;;;5074589;28;20618;-84
2022/08/18 08:40:34;;;;;;;11.75;9.57;;;;;;;;;;5073784;28;20248;-85
2022/08/18 08:43:04;;;;;;;13.25;9.43;;;;;;;;;;5075634;28;20205;-84
2022/08/18 08:45:34;;;;;;;12.55;9.80;;;;;;;;;;5075212;28;20233;-84
2022/08/18 08:48:04;;;;;;;12.20;11.00;;;;;;;;;;5075537;28;20205;-84
2022/08/18 08:50:35;;;;;;;11.15;9.88;;;;;;;;;;5078785;28;20681;-86
2022/08/18 08:53:03;;;;;;;12.15;10.18;;;;;;;;;;5078943;28;20212;-83
2022/08/18 08:55:32;;;;;;;18.33;10.52;;;;;;;;;;5077358;28;20236;-83
2022/08/18 08:58:03;;;;;;;12.75;9.25;;;;;;;;;;5079625;28;20208;-83
2022/08/18 09:00:32;;;;;;;15.05;10.93;;;;;;;;;;5090105;28;20252;-84
2022/08/18 09:03:07;;;;;;;11.60;10.35;;;;;;;;;;5093454;28;20224;-82
2022/08/18 09:05:38;;;;;;;12.27;9.57;;;;;;;;;;5092493;28;20244;-83
2022/08/18 09:08:14;;;;;;;11.02;9.80;;;;;;;;;;5081564;28;20214;-83
2022/08/18 09:10:58;;;;;;;17.30;10.70;;;;;;;;;;5075275;28;20237;-84
2022/08/18 09:13:34;;;;;;;11.38;9.52;;;;;;;;;;5063814;28;20241;-84
2022/08/18 09:16:15;;;;;;;12.13;10.80;;;;;;;;;;5075739;28;20236;-83
2022/08/18 09:18:52;;;;;;;13.88;10.90;;;;;;;;;;5075399;28;20665;-84
2022/08/18 09:21:26;;;;;;;13.23;11.70;;;;;;;;;;5076608;28;20243;-84
2022/08/18 09:23:58;;;;;;;16.10;11.90;;;;;;;;;;5077654;28;20205;-84
2022/08/18 09:26:30;;;;;;;16.65;13.65;;;;;;;;;;5074921;28;20237;-84
2022/08/18 09:28:59;;;;;;;17.30;14.07;;;;;;;;;;5077797;28;20224;-86
2022/08/18 09:31:29;;;;;;;16.13;13.60;;;;;;;;;;5076897;28;20233;-83
2022/08/18 09:34:07;;;;;;;13.20;11.82;;;;;;;;;;5076769;28;20209;-85
2022/08/18 09:36:38;;;;;;;18.23;15.15;;;;;;;;;;5071115;28;20228;-85
2022/08/18 09:42:00;;;;;;;16.50;14.43;;;;;;;;;;5075463;28;20251;-85
2022/08/18 09:44:46;;;;;;;15.55;13.73;;;;;;;;;;5076516;28;20604;-86
2022/08/18 09:47:34;;;;;;;16.95;14.57;;;;;;;;;;5076572;28;20217;-86
2022/08/18 09:50:27;;;;;;;15.98;14.38;;;;;;;;;;5097503;28;20228;-85
2022/08/18 09:52:56;;;;;;;16.63;13.50;;;;;;;;;;5094603;28;20660;-86
2022/08/18 09:55:54;;;;;;;18.70;13.85;;;;;;;;;;5075383;28;20286;-84
2022/08/18 09:58:41;;;;;;;16.83;13.43;;;;;;;;;;5066689;28;20254;-86
2022/08/18 10:01:21;;;;;;;18.70;15.65;;;;;;;;;;5094727;28;20357;-86
2022/08/18 10:04:03;;;;;;;21.13;16.92;;;;;;;;;;5095697;28;20656;-86
2022/08/18 10:06:30;;;;;;;19.23;15.90;;;;;;;;;;5094706;28;20238;-86
2022/08/18 10:09:24;;;;;;;17.20;15.10;;;;;;;;;;5095110;28;20229;-86
2022/08/18 10:12:00;;;;;;;19.48;16.10;;;;;;;;;;5080871;28;20244;-86
2022/08/18 10:14:35;;;;;;;19.17;16.40;;;;;;;;;;5095332;28;20204;-87
2022/08/18 10:17:12;;;;;;;20.33;16.98;;;;;;;;;;5111181;28;20222;-86
2022/08/18 10:19:48;;;;;;;23.25;18.75;;;;;;;;;;5095992;28;20232;-85
2022/08/18 10:22:34;;;;;;;21.77;18.33;;;;;;;;;;5096290;28;20188;-85
2022/08/18 10:25:01;;;;;;;23.98;19.42;;;;;;;;;;5095186;28;20228;-86
2022/08/18 10:27:35;;;;;;;25.08;19.48;;;;;;;;;;5094990;28;20193;-86
2022/08/18 10:30:03;;;;;;;24.90;20.25;;;;;;;;;;5094043;28;20289;-86
2022/08/18 10:32:42;;;;;;;24.55;19.95;;;;;;;;;;5104929;28;20311;-85
2022/08/18 10:35:39;;;;;;;24.60;20.10;;;;;;;;;;5115968;28;20302;-85
2022/08/18 10:38:10;;;;;;;25.42;21.90;;;;;;;;;;5078426;28;20219;-85
2022/08/18 10:40:38;;;;;;;23.25;19.85;;;;;;;;;;5093169;28;20240;-84
2022/08/18 10:43:09;;;;;;;23.98;21.30;;;;;;;;;;5078389;28;20201;-86
2022/08/18 10:45:37;;;;;;;22.17;19.38;;;;;;;;;;5082618;28;20237;-86
2022/08/18 10:48:10;;;;;;;25.67;20.13;;;;;;;;;;5080897;28;20209;-85
2022/08/18 10:50:40;;;;;;;25.92;20.77;;;;;;;;;;5080162;28;20244;-85
2022/08/18 10:53:11;;;;;;;22.65;19.90;;;;;;;;;;5080014;28;20207;-85
2022/08/18 10:55:48;;;;;;;33.85;26.50;;;;;;;;;;5079879;28;20244;-85
2022/08/18 10:58:36;;;;;;;34.65;27.23;;;;;;;;;;5078964;28;20192;-85
2022/08/18 11:01:07;;;;;;;30.77;26.45;;;;;;;;;;5078709;28;20240;-83
2022/08/18 11:03:41;;;;;;;35.05;27.23;;;;;;;;;;5081486;28;20200;-84
2022/08/18 11:06:12;;;;;;;32.75;26.33;;;;;;;;;;5080439;28;20259;-84
2022/08/18 11:08:43;;;;;;;32.50;26.60;;;;;;;;;;5078153;28;20205;-84
2022/08/18 11:11:11;;;;;;;35.03;29.27;;;;;;;;;;5077016;28;20233;-84
2022/08/18 11:13:44;;;;;;;32.90;28.55;;;;;;;;;;5075484;28;20205;-84
2022/08/18 11:16:16;;;;;;;38.75;33.55;;;;;;;;;;5077180;28;20918;-84
2022/08/18 11:18:48;;;;;;;37.78;30.08;;;;;;;;;;5071071;28;20205;-84
2022/08/18 11:21:40;;;;;;;40.95;32.38;;;;;;;;;;5085051;28;20704;-85
2022/08/18 11:24:08;;;;;;;42.72;33.95;;;;;;;;;;5074788;28;20201;-85
2022/08/18 11:26:37;;;;;;;44.42;34.17;;;;;;;;;;5083820;28;20233;-84
2022/08/18 11:29:17;;;;;;;40.72;32.17;;;;;;;;;;5077167;28;20229;-85
2022/08/18 11:31:44;;;;;;;38.53;32.03;;;;;;;;;;5093085;28;20292;-85
2022/08/18 11:34:15;;;;;;;36.80;30.60;;;;;;;;;;5095535;28;20219;-84
2022/08/18 11:36:42;;;;;;;37.28;32.00;;;;;;;;;;5078252;28;20232;-84
2022/08/18 11:39:10;;;;;;;32.72;28.60;;;;;;;;;;5083342;28;20331;-84
2022/08/18 11:41:40;;;;;;;32.35;28.52;;;;;;;;;;5084311;28;20336;-85
2022/08/18 11:44:13;;;;;;;35.35;27.75;;;;;;;;;;5072592;28;20230;-85
2022/08/18 11:46:41;;;;;;;32.40;25.58;;;;;;;;;;5086956;28;20240;-85
2022/08/18 11:49:17;;;;;;;26.75;23.90;;;;;;;;;;5079339;28;20228;-84
2022/08/18 11:51:54;;;;;;;29.50;25.23;;;;;;;;;;5078914;28;20236;-84
2022/08/18 11:54:23;;;;;;;23.92;21.35;;;;;;;;;;5073111;28;20197;-84
2022/08/18 11:56:50;;;;;;;22.27;19.98;;;;;;;;;;5073759;28;20232;-85
2022/08/18 11:59:34;;;;;;;24.15;19.80;;;;;;;;;;5085177;28;20233;-85
2022/08/18 12:02:01;;;;;;;24.52;19.15;;;;;;;;;;5105355;28;20231;-82
2022/08/18 12:04:32;;;;;;;20.00;17.90;;;;;;;;;;5106005;28;20565;-82
2022/08/18 12:07:04;;;;;;;22.73;20.42;;;;;;;;;;5096914;28;20232;-82
2022/08/18 12:09:42;;;;;;;24.90;21.17;;;;;;;;;;5096946;28;20244;-82
2022/08/18 12:12:15;;;;;;;22.58;20.27;;;;;;;;;;5075917;28;20666;-82
2022/08/18 12:14:53;;;;;;;23.25;20.67;;;;;;;;;;5057964;28;20689;-82
2022/08/18 12:17:20;;;;;;;24.77;22.10;;;;;;;;;;5057877;28;20194;-81
2022/08/18 12:19:49;;;;;;;26.05;22.77;;;;;;;;;;5055042;28;20238;-81
2022/08/18 12:22:18;;;;;;;26.10;22.83;;;;;;;;;;5057498;28;20213;-81
2022/08/18 12:24:45;;;;;;;28.33;24.20;;;;;;;;;;5061816;28;20214;-82
2022/08/18 12:27:14;;;;;;;23.83;21.30;;;;;;;;;;5062105;28;20194;-82
2022/08/18 12:29:41;;;;;;;25.50;22.77;;;;;;;;;;5068806;28;20292;-81
2022/08/18 12:32:08;;;;;;;26.23;23.20;;;;;;;;;;5082171;28;20250;-81
2022/08/18 12:34:36;;;;;;;26.52;22.92;;;;;;;;;;5081754;28;20222;-81
2022/08/18 12:37:05;;;;;;;24.92;21.05;;;;;;;;;;5080125;28;20230;-82
2022/08/18 12:39:32;;;;;;;24.83;21.27;;;;;;;;;;5079054;28;20263;-81
2022/08/18 12:41:59;;;;;;;22.92;20.42;;;;;;;;;;5079020;28;20236;-82
2022/08/18 12:44:26;;;;;;;24.52;21.95;;;;;;;;;;5078063;28;20633;-82
2022/08/18 12:46:54;;;;;;;21.67;19.48;;;;;;;;;;5079321;28;20241;-81
2022/08/18 12:49:23;;;;;;;21.20;18.77;;;;;;;;;;5097896;28;20231;-81
2022/08/18 12:51:50;;;;;;;21.25;19.05;;;;;;;;;;5097955;28;20255;-81
2022/08/18 12:54:19;;;;;;;19.75;17.73;;;;;;;;;;5098031;28;20618;-81
2022/08/18 12:56:47;;;;;;;20.45;17.88;;;;;;;;;;5097766;28;20232;-81
2022/08/18 12:59:14;;;;;;;18.85;16.90;;;;;;;;;;5097707;28;20288;-81
2022/08/18 13:01:41;;;;;;;19.05;16.88;;;;;;;;;;5088736;28;20225;-81
2022/08/18 13:04:08;;;;;;;18.17;16.33;;;;;;;;;;5080005;28;20197;-81
2022/08/18 13:06:37;;;;;;;20.25;17.83;;;;;;;;;;5084470;28;20228;-81
2022/08/18 13:09:04;;;;;;;20.30;18.17;;;;;;;;;;5098188;28;20236;-82
2022/08/18 13:11:33;;;;;;;20.15;18.08;;;;;;;;;;5084628;28;20229;-81
2022/08/18 13:14:00;;;;;;;24.05;17.58;;;;;;;;;;5078813;28;20201;-82
2022/08/18 13:16:28;;;;;;;19.25;15.23;;;;;;;;;;5077921;28;20237;-81
2022/08/18 13:18:55;;;;;;;17.85;16.00;;;;;;;;;;5078407;28;20225;-81
2022/08/18 13:21:22;;;;;;;23.48;17.35;;;;;;;;;;5077297;28;20237;-81
2022/08/18 13:23:49;;;;;;;22.08;18.38;;;;;;;;;;5077901;28;20227;-82
2022/08/18 13:26:19;;;;;;;20.73;16.70;;;;;;;;;;5077790;28;20240;-81
2022/08/18 13:28:48;;;;;;;17.05;15.43;;;;;;;;;;5082701;28;20708;-81
2022/08/18 13:31:15;;;;;;;19.63;17.50;;;;;;;;;;5090896;28;20229;-81
2022/08/18 13:33:42;;;;;;;19.88;16.98;;;;;;;;;;5082004;28;20214;-81
2022/08/18 13:36:10;;;;;;;15.75;14.20;;;;;;;;;;5076971;28;20237;-81
2022/08/18 13:38:37;;;;;;;16.48;14.52;;;;;;;;;;5077174;28;20642;-82
2022/08/18 13:41:04;;;;;;;15.77;14.23;;;;;;;;;;5076686;28;20241;-82
2022/08/18 13:43:32;;;;;;;16.67;14.88;;;;;;;;;;5079499;28;20236;-82
2022/08/18 13:46:01;;;;;;;17.75;15.85;;;;;;;;;;5079250;28;20235;-85
2022/08/18 13:48:28;;;;;;;16.23;14.55;;;;;;;;;;5078444;28;20205;-86
2022/08/18 13:50:57;;;;;;;16.33;13.73;;;;;;;;;;5075890;28;20236;-85
2022/08/18 13:53:25;;;;;;;16.13;14.52;;;;;;;;;;5076111;28;20205;-85
2022/08/18 13:55:52;;;;;;;15.90;14.32;;;;;;;;;;5076408;28;20233;-86
2022/08/18 13:58:19;;;;;;;16.23;14.18;;;;;;;;;;5076708;28;20681;-85
2022/08/18 14:00:47;;;;;;;14.23;12.80;;;;;;;;;;5074833;28;20233;-85
2022/08/18 14:03:15;;;;;;;16.55;14.80;;;;;;;;;;5076152;28;20205;-85
2022/08/18 14:05:42;;;;;;;14.90;12.77;;;;;;;;;;5077071;28;20240;-84
2022/08/18 14:08:11;;;;;;;16.27;14.73;;;;;;;;;;5075942;28;20216;-85
2022/08/18 14:10:38;;;;;;;15.27;13.68;;;;;;;;;;5075322;28;20865;-85
2022/08/18 14:13:05;;;;;;;14.15;12.75;;;;;;;;;;5075521;28;20201;-85
2022/08/18 14:15:36;;;;;;;14.00;12.57;;;;;;;;;;5075761;28;20328;-85
2022/08/18 14:18:03;;;;;;;15.07;13.60;;;;;;;;;;5075239;28;20292;-85
2022/08/18 14:28:47;;;;;;;11.90;10.77;;;;;;;;;;5075449;28;20298;-84
2022/08/18 14:31:14;;;;;;;9.82;8.93;;;;;;;;;;5073313;28;20225;-83
2022/08/18 14:33:43;;;;;;;11.80;8.90;;;;;;;;;;5076992;28;20216;-82
2022/08/18 14:36:12;;;;;;;9.02;8.20;;;;;;;;;;5075857;28;20238;-84
2022/08/18 14:38:40;;;;;;;9.38;8.55;;;;;;;;;;5075201;28;20216;-84
2022/08/18 14:41:08;;;;;;;9.60;8.40;;;;;;;;;;5073788;28;20237;-83
2022/08/18 14:43:35;;;;;;;8.60;7.90;;;;;;;;;;5073944;28;20186;-84
2022/08/18 14:46:03;;;;;;;9.93;8.98;;;;;;;;;;5057908;28;20234;-84
2022/08/18 14:48:31;;;;;;;8.10;7.40;;;;;;;;;;5073368;28;20550;-82
2022/08/18 14:50:59;;;;;;;8.32;7.53;;;;;;;;;;5073278;28;20225;-85
2022/08/18 14:53:28;;;;;;;9.07;8.23;;;;;;;;;;5074625;28;20688;-84
2022/08/18 14:55:56;;;;;;;7.90;7.20;;;;;;;;;;5072866;28;20224;-84
2022/08/18 14:58:25;;;;;;;7.53;6.93;;;;;;;;;;5074265;28;20216;-84
2022/08/18 15:00:52;;;;;;;8.20;6.78;;;;;;;;;;5073597;28;20233;-83
2022/08/18 15:03:19;;;;;;;7.88;7.07;;;;;;;;;;5077609;28;20233;-83
2022/08/18 15:05:46;;;;;;;6.75;6.15;;;;;;;;;;5094236;28;20229;-83
2022/08/18 15:08:13;;;;;;;7.25;6.57;;;;;;;;;;5094355;28;20235;-83
2022/08/18 15:10:43;;;;;;;6.70;6.10;;;;;;;;;;5093239;28;20232;-84
2022/08/18 15:13:10;;;;;;;7.57;6.63;;;;;;;;;;5094439;28;20311;-84
2022/08/18 15:15:37;;;;;;;6.70;6.05;;;;;;;;;;5093258;28;20239;-84
2022/08/18 15:18:04;;;;;;;6.40;5.80;;;;;;;;;;5094765;28;20684;-84